Time;durP1;ratioP1;P1;durP2;ratioP2;P2;SDS_P1;SDS_P2;PMS_P1;PMS_P2;Temp;Humidity;BMP_temperature;BMP_pressure;BME280_temperature;BME280_humidity;BME280_pressure;Samples;Min_cycle;Max_cycle;Signal;HPM_P1;HPM_P2
2023/06/26 00:00:20;;;;;;;8.93;3.70;;;23.70;99.90;;;;;;7284959;19;20193;-80
2023/06/26 00:02:46;;;;;;;9.27;4.32;;;23.70;99.90;;;;;;7284662;19;20188;-80
2023/06/26 00:05:13;;;;;;;6.95;4.03;;;23.70;99.90;;;;;;7282601;19;20189;-81
2023/06/26 00:07:39;;;;;;;11.70;5.18;;;23.70;99.90;;;;;;7304432;19;20210;-80
2023/06/26 00:10:06;;;;;;;7.63;4.25;;;23.70;99.90;;;;;;7347229;19;20197;-80
2023/06/26 00:12:32;;;;;;;8.32;4.10;;;23.50;99.90;;;;;;7276903;19;20181;-80
2023/06/26 00:14:58;;;;;;;8.23;4.13;;;23.50;99.90;;;;;;7306107;19;20206;-80
2023/06/26 00:17:24;;;;;;;7.40;3.80;;;23.40;99.90;;;;;;7285704;19;20579;-80
2023/06/26 00:19:50;;;;;;;7.53;3.85;;;23.40;99.90;;;;;;7285411;19;20196;-81
2023/06/26 00:22:16;;;;;;;7.47;3.50;;;23.30;99.90;;;;;;7281075;19;20196;-80
2023/06/26 00:24:42;;;;;;;8.67;3.67;;;23.20;99.90;;;;;;7279205;19;20189;-80
2023/06/26 00:27:07;;;;;;;6.20;3.35;;;23.10;99.90;;;;;;7284378;19;20197;-80
2023/06/26 00:29:33;;;;;;;7.05;3.70;;;22.90;99.90;;;;;;7302228;19;20189;-80
2023/06/26 00:31:59;;;;;;;6.88;3.50;;;22.90;99.90;;;;;;7295438;19;20523;-80
2023/06/26 00:34:25;;;;;;;8.32;3.50;;;22.90;99.90;;;;;;7306602;19;20201;-81
2023/06/26 00:36:51;;;;;;;9.07;3.60;;;22.80;99.90;;;;;;7285387;19;20210;-80
2023/06/26 00:39:17;;;;;;;7.93;3.20;;;22.80;99.90;;;;;;7283911;19;20196;-80
2023/06/26 00:41:43;;;;;;;8.48;3.42;;;22.80;99.90;;;;;;7270288;19;20206;-80
2023/06/26 00:44:10;;;;;;;9.27;3.60;;;22.70;99.90;;;;;;7282943;19;20652;-80
2023/06/26 00:46:36;;;;;;;10.63;3.93;;;22.70;99.90;;;;;;7283530;19;20192;-80
2023/06/26 00:49:03;;;;;;;8.43;3.97;;;22.70;99.90;;;;;;7282744;19;20295;-80
2023/06/26 00:51:30;;;;;;;8.70;3.63;;;22.60;99.90;;;;;;7304433;19;20538;-80
2023/06/26 00:53:57;;;;;;;7.63;3.43;;;22.60;99.90;;;;;;7303555;19;20782;-80
2023/06/26 00:56:23;;;;;;;8.13;3.73;;;22.60;99.90;;;;;;7284196;19;20562;-80
2023/06/26 00:58:49;;;;;;;9.40;3.83;;;22.50;99.90;;;;;;7283635;19;20196;-80
2023/06/26 01:01:17;;;;;;;8.80;4.00;;;22.40;99.90;;;;;;7284143;19;20545;-80
2023/06/26 01:03:51;;;;;;;10.43;4.10;;;22.40;99.90;;;;;;7278936;19;20193;-80
2023/06/26 01:06:19;;;;;;;8.37;3.63;;;22.30;99.90;;;;;;7283939;19;20200;-80
2023/06/26 01:08:46;;;;;;;9.00;3.73;;;22.30;99.90;;;;;;7324038;19;20189;-80
2023/06/26 01:11:13;;;;;;;8.53;3.77;;;22.30;99.90;;;;;;7395742;19;20163;-80
2023/06/26 01:13:40;;;;;;;8.77;3.63;;;22.30;99.90;;;;;;7392838;19;20714;-80
2023/06/26 01:16:06;;;;;;;7.93;3.60;;;22.20;99.90;;;;;;7389914;19;20164;-80
2023/06/26 01:18:34;;;;;;;8.50;3.40;;;22.20;99.90;;;;;;7390680;19;20142;-80
2023/06/26 01:21:01;;;;;;;7.27;3.40;;;22.30;99.90;;;;;;7386600;19;20141;-79
2023/06/26 01:24:04;;;;;;;8.27;3.70;;;22.30;99.90;;;;;;7305501;19;20747;-80
2023/06/26 01:26:35;;;;;;;9.47;3.70;;;22.20;99.90;;;;;;7172259;19;2005078;-80
2023/06/26 01:29:02;;;;;;;10.40;3.67;;;22.10;99.90;;;;;;7291725;19;20602;-79
2023/06/26 01:31:30;;;;;;;9.13;3.90;;;22.20;99.90;;;;;;7306350;19;20193;-80
2023/06/26 01:33:58;;;;;;;10.97;4.00;;;22.10;99.90;;;;;;7284833;19;20307;-80
2023/06/26 01:36:25;;;;;;;9.90;3.60;;;22.10;99.90;;;;;;7281699;19;20189;-80
2023/06/26 01:38:51;;;;;;;8.80;3.77;;;22.10;99.90;;;;;;7284489;19;20181;-80
2023/06/26 01:41:18;;;;;;;11.83;3.90;;;22.10;99.90;;;;;;7281255;19;20225;-80
2023/06/26 01:44:07;;;;;;;11.67;3.70;;;22.00;99.90;;;;;;7284962;19;20193;-80
2023/06/26 01:46:42;;;;;;;6.97;3.40;;;22.00;99.90;;;;;;7262785;19;20199;-79
2023/06/26 01:49:24;;;;;;;10.20;4.00;;;22.00;99.90;;;;;;7291317;19;20189;-79
2023/06/26 01:52:16;;;;;;;11.27;3.80;;;22.10;99.90;;;;;;7302421;19;20238;-80
2023/06/26 01:54:52;;;;;;;10.40;3.60;;;21.90;99.90;;;;;;7198138;19;2004835;-79
2023/06/26 01:57:19;;;;;;;8.17;3.73;;;21.80;99.90;;;;;;7298780;19;20196;-80
2023/06/26 01:59:47;;;;;;;11.00;3.73;;;21.70;99.90;;;;;;7287344;19;20206;-79
2023/06/26 02:02:12;;;;;;;11.13;3.77;;;21.50;99.90;;;;;;7287424;19;20207;-80
2023/06/26 02:04:38;;;;;;;9.57;3.60;;;21.60;99.90;;;;;;7294607;19;20204;-80
2023/06/26 02:07:05;;;;;;;10.63;3.80;;;21.60;99.90;;;;;;7289146;19;20269;-79
2023/06/26 02:09:32;;;;;;;11.37;4.00;;;21.60;99.90;;;;;;7287817;19;20281;-79
2023/06/26 02:11:57;;;;;;;9.83;3.90;;;21.60;99.90;;;;;;7311322;19;20189;-79
2023/06/26 02:14:23;;;;;;;9.30;3.63;;;21.60;99.90;;;;;;7288229;19;20652;-80
2023/06/26 02:16:49;;;;;;;8.63;3.60;;;21.60;99.90;;;;;;7289122;19;20197;-80
2023/06/26 02:19:21;;;;;;;11.10;4.43;;;21.50;99.90;;;;;;7288463;19;20193;-79
2023/06/26 02:21:49;;;;;;;11.63;4.10;;;21.50;99.90;;;;;;7287945;19;20193;-80
2023/06/26 02:24:15;;;;;;;12.63;4.60;;;21.60;99.90;;;;;;7289585;19;20268;-80
2023/06/26 02:26:41;;;;;;;10.70;3.80;;;21.50;99.90;;;;;;7289305;19;20193;-80
2023/06/26 02:29:10;;;;;;;11.30;4.37;;;21.50;99.90;;;;;;7288311;19;20651;-80
2023/06/26 02:31:36;;;;;;;9.00;3.47;;;21.50;99.90;;;;;;7288853;19;20195;-81
2023/06/26 02:34:01;;;;;;;12.67;4.27;;;21.50;99.90;;;;;;7286845;19;20473;-80
2023/06/26 02:36:27;;;;;;;10.87;4.20;;;21.50;99.90;;;;;;7308714;19;20192;-80
2023/06/26 02:38:53;;;;;;;11.63;3.97;;;21.60;99.90;;;;;;7289692;19;20183;-80
2023/06/26 02:41:19;;;;;;;10.17;3.97;;;21.60;99.90;;;;;;7286598;19;20596;-80
2023/06/26 02:43:45;;;;;;;10.73;4.30;;;21.60;99.90;;;;;;7286184;19;20196;-80
2023/06/26 02:46:10;;;;;;;10.43;3.83;;;21.50;99.90;;;;;;7288302;19;20567;-79
2023/06/26 02:48:36;;;;;;;15.10;4.83;;;21.40;99.90;;;;;;7286141;19;20181;-79
2023/06/26 02:51:02;;;;;;;13.17;4.80;;;21.20;99.90;;;;;;7285372;19;20181;-79
2023/06/26 02:53:31;;;;;;;11.43;4.20;;;21.10;99.90;;;;;;7295291;19;20188;-80
2023/06/26 02:55:57;;;;;;;14.27;4.70;;;21.00;99.90;;;;;;7308594;19;20192;-80
2023/06/26 02:58:22;;;;;;;13.40;4.33;;;20.90;99.90;;;;;;7287683;19;20177;-80
2023/06/26 03:00:50;;;;;;;13.27;4.70;;;20.80;99.90;;;;;;7286942;19;20202;-80
2023/06/26 03:03:17;;;;;;;11.23;4.33;;;20.80;99.90;;;;;;7285654;19;20208;-80
2023/06/26 03:05:46;;;;;;;12.63;4.33;;;20.70;99.90;;;;;;7287800;19;20273;-80
2023/06/26 03:08:12;;;;;;;13.67;4.23;;;20.50;99.90;;;;;;7286782;19;20188;-80
2023/06/26 03:10:38;;;;;;;11.90;4.57;;;20.40;99.90;;;;;;7287736;19;20198;-80
2023/06/26 03:13:04;;;;;;;11.57;4.67;;;20.30;99.90;;;;;;7285508;19;20651;-80
2023/06/26 03:15:31;;;;;;;14.70;5.03;;;20.30;99.90;;;;;;7294372;19;20200;-80
2023/06/26 03:17:56;;;;;;;14.60;4.87;;;20.30;99.90;;;;;;7309455;19;20667;-80
2023/06/26 03:20:26;;;;;;;12.40;4.70;;;20.30;99.90;;;;;;7288126;19;20252;-79
2023/06/26 03:22:53;;;;;;;15.47;4.50;;;20.30;99.90;;;;;;7285684;19;20656;-80
2023/06/26 03:25:21;;;;;;;17.27;4.60;;;20.20;99.90;;;;;;7287467;19;20193;-80
2023/06/26 03:27:48;;;;;;;14.13;4.63;;;20.20;99.90;;;;;;7286077;19;20656;-80
2023/06/26 03:30:15;;;;;;;12.93;4.60;;;20.30;99.90;;;;;;7286676;19;20260;-80
2023/06/26 03:32:44;;;;;;;20.23;5.03;;;20.30;99.90;;;;;;7286829;19;20191;-80
2023/06/26 03:35:10;;;;;;;18.63;4.83;;;20.20;99.90;;;;;;7285859;19;20188;-80
2023/06/26 03:37:36;;;;;;;14.97;5.07;;;20.30;99.90;;;;;;7287852;19;21115;-80
2023/06/26 03:40:04;;;;;;;14.73;4.63;;;20.30;99.90;;;;;;7286029;19;20320;-80
2023/06/26 03:42:30;;;;;;;15.63;4.43;;;20.20;99.90;;;;;;7300270;19;20181;-79
2023/06/26 03:44:56;;;;;;;13.40;4.70;;;20.20;99.90;;;;;;7302883;19;20515;-80
2023/06/26 03:47:22;;;;;;;17.33;5.33;;;20.10;99.90;;;;;;7285905;19;20187;-80
2023/06/26 03:49:47;;;;;;;15.93;4.27;;;20.10;99.90;;;;;;7286950;19;20192;-80
2023/06/26 03:52:13;;;;;;;16.67;5.03;;;20.00;99.90;;;;;;7286610;19;20529;-80
2023/06/26 03:54:39;;;;;;;16.13;4.43;;;20.00;99.90;;;;;;7284501;19;20181;-80
2023/06/26 03:57:05;;;;;;;16.30;5.00;;;20.00;99.90;;;;;;7286588;19;20181;-80
2023/06/26 03:59:31;;;;;;;15.90;4.33;;;20.10;99.90;;;;;;7293917;19;20661;-79
2023/06/26 04:01:56;;;;;;;17.03;5.03;;;20.00;99.90;;;;;;7304937;19;20256;-80
2023/06/26 04:04:22;;;;;;;17.23;4.63;;;20.00;99.90;;;;;;7285249;19;20217;-80
2023/06/26 04:06:48;;;;;;;18.83;5.00;;;20.20;99.90;;;;;;7285462;19;20542;-80
2023/06/26 04:09:13;;;;;;;15.27;4.83;;;20.20;99.90;;;;;;7283394;19;20193;-80
2023/06/26 04:11:39;;;;;;;15.73;4.73;;;20.20;99.90;;;;;;7285190;19;20230;-80
2023/06/26 04:14:05;;;;;;;16.63;4.67;;;20.20;99.90;;;;;;7283543;19;20722;-80
2023/06/26 04:16:31;;;;;;;16.87;4.97;;;20.20;99.90;;;;;;7292705;19;20196;-79
2023/06/26 04:18:56;;;;;;;16.50;4.70;;;20.20;99.90;;;;;;7305666;19;20205;-80
2023/06/26 04:21:24;;;;;;;15.50;4.37;;;20.20;99.90;;;;;;7284591;19;20196;-80
2023/06/26 04:23:51;;;;;;;19.20;5.30;;;20.10;99.90;;;;;;7283585;19;20213;-79
2023/06/26 04:26:16;;;;;;;16.17;5.13;;;20.20;99.90;;;;;;7283517;19;20196;-80
2023/06/26 04:28:43;;;;;;;13.70;5.10;;;20.10;99.90;;;;;;7283969;19;20260;-80
2023/06/26 04:31:09;;;;;;;16.27;4.70;;;20.20;99.90;;;;;;7285938;19;21003;-80
2023/06/26 04:33:38;;;;;;;14.33;4.47;;;20.30;99.90;;;;;;7372724;19;20216;-80
2023/06/26 04:36:05;;;;;;;17.17;4.20;;;20.70;99.90;;;;;;7398466;19;20480;-79
2023/06/26 04:38:34;;;;;;;14.90;4.30;;;21.40;99.90;;;;;;7320969;19;20215;-79
2023/06/26 04:41:00;;;;;;;18.53;4.20;;;22.00;99.90;;;;;;7291142;19;20196;-79
2023/06/26 04:43:26;;;;;;;14.27;4.00;;;22.30;99.90;;;;;;7284255;19;20193;-79
2023/06/26 04:45:52;;;;;;;15.70;3.90;;;22.50;99.90;;;;;;7283761;19;20304;-80
2023/06/26 04:48:18;;;;;;;17.63;3.93;;;22.50;99.90;;;;;;7283036;19;20200;-79
2023/06/26 04:50:45;;;;;;;27.30;4.43;;;22.50;99.90;;;;;;7284810;19;20564;-80
2023/06/26 04:53:12;;;;;;;16.43;3.43;;;22.30;99.90;;;;;;7284486;19;20324;-80
2023/06/26 04:55:38;;;;;;;15.17;3.90;;;22.60;99.90;;;;;;7283238;19;20188;-79
2023/06/26 04:58:03;;;;;;;16.53;3.80;;;23.40;99.90;;;;;;7284774;19;20205;-80
2023/06/26 05:00:29;;;;;;;14.03;3.53;;;24.30;99.90;;;;;;7303671;19;20189;-79
2023/06/26 05:03:00;;;;;;;15.05;3.85;;;25.40;99.90;;;;;;7281917;19;20189;-79
2023/06/26 05:05:27;;;;;;;16.65;3.80;;;26.20;99.90;;;;;;7282082;19;20221;-80
2023/06/26 05:07:55;;;;;;;15.23;3.28;;;26.90;99.90;;;;;;7283449;19;20197;-79
2023/06/26 05:10:20;;;;;;;17.67;3.67;;;27.00;99.90;;;;;;7282530;19;21512;-80
2023/06/26 05:12:46;;;;;;;14.90;3.20;;;26.20;99.90;;;;;;7283377;19;20192;-79
2023/06/26 05:15:12;;;;;;;12.35;3.40;;;25.90;99.90;;;;;;7283017;19;20632;-80
2023/06/26 05:17:38;;;;;;;14.65;3.40;;;26.30;99.90;;;;;;7286084;19;20218;-79
2023/06/26 05:20:05;;;;;;;14.77;3.47;;;26.80;99.90;;;;;;7284007;19;20180;-80
2023/06/26 05:22:33;;;;;;;11.75;3.10;;;27.50;99.90;;;;;;7306592;19;20193;-80
2023/06/26 05:25:00;;;;;;;12.20;3.00;;;27.70;99.90;;;;;;7284199;19;20180;-80
2023/06/26 05:27:26;;;;;;;13.07;3.40;;;27.70;99.90;;;;;;7283295;19;20184;-80
2023/06/26 05:29:52;;;;;;;13.60;3.20;;;28.30;99.90;;;;;;7284943;19;20546;-80
2023/06/26 05:32:18;;;;;;;13.65;3.28;;;29.00;99.90;;;;;;7283392;19;20540;-81
2023/06/26 05:34:51;;;;;;;14.20;3.38;;;29.10;99.90;;;;;;7281132;19;20196;-81
2023/06/26 05:37:21;;;;;;;11.52;3.38;;;29.20;99.90;;;;;;7285581;19;20207;-81
2023/06/26 05:39:47;;;;;;;13.93;2.70;;;29.10;99.90;;;;;;7289580;19;20197;-81
2023/06/26 05:42:14;;;;;;;14.10;3.55;;;30.00;99.90;;;;;;7288827;19;20252;-80
2023/06/26 05:44:39;;;;;;;14.05;2.97;;;30.70;99.90;;;;;;7291522;19;20541;-80
2023/06/26 05:47:05;;;;;;;12.93;2.80;;;30.20;99.90;;;;;;7288702;19;20185;-80
2023/06/26 05:49:31;;;;;;;11.82;2.70;;;29.60;99.90;;;;;;7309485;19;20193;-80
2023/06/26 05:51:57;;;;;;;13.27;2.83;;;28.40;99.90;;;;;;7298363;19;20185;-80
2023/06/26 05:54:24;;;;;;;14.40;3.30;;;28.70;99.90;;;;;;7289545;19;21456;-80
2023/06/26 05:56:55;;;;;;;18.40;3.13;;;29.00;99.90;;;;;;7290541;19;20188;-80
2023/06/26 05:59:22;;;;;;;10.45;2.65;;;29.70;99.90;;;;;;7289980;19;20205;-80
2023/06/26 06:01:48;;;;;;;8.93;2.40;;;29.30;99.90;;;;;;7289833;19;20360;-80
2023/06/26 06:04:14;;;;;;;11.50;2.42;;;29.10;99.90;;;;;;7291125;19;20265;-80
2023/06/26 06:06:40;;;;;;;12.40;2.50;;;29.40;99.90;;;;;;7290108;19;20192;-80
2023/06/26 06:09:06;;;;;;;11.35;2.63;;;29.50;99.90;;;;;;7288838;19;20699;-81
2023/06/26 06:11:32;;;;;;;12.35;2.83;;;28.90;99.90;;;;;;7297831;19;20188;-80
2023/06/26 06:13:59;;;;;;;13.65;2.53;;;28.50;99.90;;;;;;7311252;19;20189;-80
2023/06/26 06:16:25;;;;;;;12.95;2.50;;;27.90;99.90;;;;;;7289675;19;20284;-80
2023/06/26 06:18:51;;;;;;;9.82;2.22;;;28.40;99.90;;;;;;7292070;19;20217;-80
2023/06/26 06:21:17;;;;;;;10.30;1.90;;;27.50;99.90;;;;;;7291004;19;20185;-80
2023/06/26 06:23:42;;;;;;;11.23;2.40;;;27.30;99.90;;;;;;7290198;19;20181;-80
2023/06/26 06:26:08;;;;;;;8.13;2.03;;;28.50;99.90;;;;;;7290212;19;20660;-80
2023/06/26 06:28:34;;;;;;;12.65;2.00;;;29.50;99.90;;;;;;7289957;19;20197;-80
2023/06/26 06:30:59;;;;;;;8.15;1.83;;;29.30;99.50;;;;;;7312769;19;20191;-81
2023/06/26 06:33:25;;;;;;;10.57;1.95;;;29.80;99.40;;;;;;7300555;19;20208;-80
2023/06/26 06:35:51;;;;;;;14.05;2.80;;;30.10;97.80;;;;;;7312544;19;20201;-81
2023/06/26 06:38:16;;;;;;;11.27;2.28;;;30.40;96.20;;;;;;7310601;19;20212;-80
2023/06/26 06:40:42;;;;;;;15.35;2.10;;;29.10;97.70;;;;;;7311651;19;20224;-80
2023/06/26 06:43:08;;;;;;;7.57;1.92;;;28.90;99.10;;;;;;7309397;19;20197;-80
2023/06/26 06:45:33;;;;;;;9.45;2.28;;;29.40;98.80;;;;;;7291786;19;20201;-80
2023/06/26 06:47:59;;;;;;;8.38;1.80;;;29.60;97.30;;;;;;7308260;19;20185;-81
2023/06/26 06:50:25;;;;;;;9.50;1.90;;;29.00;96.90;;;;;;7288183;19;20185;-81
2023/06/26 06:52:50;;;;;;;9.45;1.92;;;28.90;98.40;;;;;;7287061;19;20202;-80
2023/06/26 06:55:16;;;;;;;7.05;1.85;;;28.30;98.80;;;;;;7288508;19;20196;-80
2023/06/26 06:57:42;;;;;;;7.47;1.60;;;27.90;99.10;;;;;;7288542;19;20204;-80
2023/06/26 07:00:10;;;;;;;8.45;1.83;;;27.80;99.90;;;;;;7287681;19;20201;-80
2023/06/26 07:02:36;;;;;;;8.48;1.73;;;28.20;99.90;;;;;;7284391;19;20196;-80
2023/06/26 07:05:03;;;;;;;7.35;1.70;;;28.90;98.10;;;;;;7296283;19;20196;-81
2023/06/26 07:07:31;;;;;;;10.02;1.70;;;28.90;97.10;;;;;;7308919;19;20202;-80
2023/06/26 07:10:04;;;;;;;8.88;1.90;;;28.30;98.80;;;;;;7288235;19;20184;-81
2023/06/26 07:12:30;;;;;;;7.95;1.50;;;29.20;97.60;;;;;;7287832;19;20185;-81
2023/06/26 07:14:57;;;;;;;7.25;1.50;;;30.70;95.50;;;;;;7288040;19;20203;-81
2023/06/26 07:17:23;;;;;;;6.28;1.60;;;30.80;93.50;;;;;;7287880;19;20642;-81
2023/06/26 07:19:49;;;;;;;10.98;2.10;;;30.30;94.30;;;;;;7285616;19;20191;-81
2023/06/26 07:22:16;;;;;;;8.38;1.33;;;29.30;94.20;;;;;;7286339;19;20197;-81
2023/06/26 07:24:41;;;;;;;5.13;1.40;;;29.60;94.80;;;;;;7288288;19;20834;-81
2023/06/26 07:27:07;;;;;;;8.82;1.70;;;29.40;94.90;;;;;;7285706;19;20188;-80
2023/06/26 07:29:33;;;;;;;6.70;1.45;;;28.20;95.30;;;;;;7289650;19;20181;-80
2023/06/26 07:31:58;;;;;;;7.07;1.75;;;27.60;97.30;;;;;;7309780;19;20191;-80
2023/06/26 07:34:24;;;;;;;11.55;2.20;;;28.40;97.10;;;;;;7286015;19;20196;-81
2023/06/26 07:36:50;;;;;;;5.53;1.50;;;29.60;95.80;;;;;;7286602;19;20256;-80
2023/06/26 07:39:16;;;;;;;10.82;2.08;;;30.40;94.90;;;;;;7286437;19;20545;-81
2023/06/26 07:41:41;;;;;;;5.75;1.40;;;31.20;92.10;;;;;;7286700;19;20213;-81
2023/06/26 07:44:07;;;;;;;4.90;1.17;;;31.40;91.40;;;;;;7286044;19;20192;-81
2023/06/26 07:46:33;;;;;;;6.13;1.40;;;31.50;90.10;;;;;;7289879;19;20185;-81
2023/06/26 07:48:58;;;;;;;5.00;1.40;;;31.20;90.00;;;;;;7308708;19;20192;-81
2023/06/26 07:51:24;;;;;;;8.48;1.10;;;32.30;90.40;;;;;;7287213;19;20196;-81
2023/06/26 07:53:50;;;;;;;7.45;1.60;;;32.60;83.80;;;;;;7286433;19;20280;-81
2023/06/26 07:56:15;;;;;;;6.38;1.42;;;33.00;82.60;;;;;;7284429;19;20218;-81
2023/06/26 07:58:41;;;;;;;6.90;1.27;;;32.00;82.50;;;;;;7285910;19;20185;-80
2023/06/26 08:01:07;;;;;;;7.05;1.88;;;33.00;84.30;;;;;;7285343;19;20191;-80
2023/06/26 08:03:33;;;;;;;5.60;1.60;;;32.80;83.00;;;;;;7293764;19;20193;-81
2023/06/26 08:05:58;;;;;;;7.95;1.65;;;33.80;80.60;;;;;;7311540;19;20184;-81
2023/06/26 08:08:24;;;;;;;7.25;1.30;;;34.00;77.90;;;;;;7288636;19;20197;-81
2023/06/26 08:10:49;;;;;;;9.80;1.70;;;34.00;77.40;;;;;;7291375;19;20192;-81
2023/06/26 08:13:15;;;;;;;5.55;1.50;;;34.80;75.70;;;;;;7289680;19;20196;-81
2023/06/26 08:15:41;;;;;;;7.03;1.52;;;34.70;74.70;;;;;;7284770;19;20211;-81
2023/06/26 08:18:07;;;;;;;6.88;1.60;;;35.60;73.50;;;;;;7285253;19;20734;-81
2023/06/26 08:20:32;;;;;;;4.57;1.20;;;36.10;72.10;;;;;;7394884;19;20149;-81
2023/06/26 08:22:58;;;;;;;7.05;1.52;;;35.90;71.40;;;;;;7397313;19;20146;-81
2023/06/26 08:25:23;;;;;;;6.68;1.55;;;35.90;70.10;;;;;;7330206;19;20196;-81
2023/06/26 08:27:52;;;;;;;6.55;1.42;;;36.90;67.30;;;;;;7284207;19;20244;-81
2023/06/26 08:30:18;;;;;;;5.50;1.50;;;37.40;66.00;;;;;;7285711;19;20663;-81
2023/06/26 08:32:43;;;;;;;7.97;1.55;;;38.10;63.10;;;;;;7283581;19;20197;-81
2023/06/26 08:35:10;;;;;;;8.65;1.60;;;38.50;62.50;;;;;;7283745;19;20185;-81
2023/06/26 08:37:35;;;;;;;5.43;1.40;;;38.70;60.80;;;;;;7269612;19;20651;-81
2023/06/26 08:40:01;;;;;;;7.97;1.70;;;37.40;60.10;;;;;;7306189;19;20176;-80
2023/06/26 08:42:27;;;;;;;7.88;1.30;;;37.50;61.80;;;;;;7285045;19;20192;-81
2023/06/26 08:44:53;;;;;;;7.88;1.50;;;38.20;60.60;;;;;;7285734;19;20692;-81
2023/06/26 08:47:19;;;;;;;8.40;1.40;;;36.50;60.30;;;;;;7284538;19;20248;-81
2023/06/26 08:50:00;;;;;;;5.32;1.27;;;36.10;64.00;;;;;;7275524;19;20192;-81
2023/06/26 08:52:34;;;;;;;7.20;1.40;;;36.90;64.50;;;;;;7284560;19;20252;-81
2023/06/26 08:55:02;;;;;;;7.30;1.30;;;36.00;59.80;;;;;;7283103;19;20570;-81
2023/06/26 08:57:30;;;;;;;9.55;1.40;;;35.30;61.70;;;;;;7285370;19;20185;-81
2023/06/26 08:59:56;;;;;;;5.85;1.40;;;34.20;61.50;;;;;;7281498;19;20208;-82
2023/06/26 09:02:22;;;;;;;5.57;1.38;;;34.40;62.20;;;;;;7283067;19;20206;-81
2023/06/26 09:04:50;;;;;;;5.78;1.30;;;34.60;61.80;;;;;;7261873;19;20193;-81
2023/06/26 09:07:16;;;;;;;7.07;1.58;;;34.60;61.80;;;;;;7260149;19;20295;-81
2023/06/26 09:09:42;;;;;;;7.07;1.45;;;33.70;63.50;;;;;;7283575;19;20282;-81
2023/06/26 09:12:09;;;;;;;6.57;1.50;;;33.60;63.60;;;;;;7281711;19;20648;-80
2023/06/26 09:14:36;;;;;;;4.75;1.35;;;32.40;63.90;;;;;;7292339;19;20193;-81
2023/06/26 09:17:02;;;;;;;6.78;1.40;;;32.30;66.90;;;;;;7302380;19;20207;-80
2023/06/26 09:19:28;;;;;;;5.43;1.27;;;33.10;65.10;;;;;;7280420;19;20692;-81
2023/06/26 09:21:54;;;;;;;4.82;1.55;;;33.90;64.90;;;;;;7281591;19;20679;-81
2023/06/26 09:24:21;;;;;;;7.32;1.50;;;32.40;64.10;;;;;;7270170;19;20207;-81
2023/06/26 09:26:47;;;;;;;5.80;1.40;;;32.50;64.80;;;;;;7282118;19;20209;-81
2023/06/26 09:29:14;;;;;;;7.25;1.45;;;33.20;63.80;;;;;;7281655;19;20200;-81
2023/06/26 09:31:40;;;;;;;6.75;1.60;;;32.20;63.40;;;;;;7282248;19;20627;-81
2023/06/26 09:34:06;;;;;;;5.88;1.40;;;32.70;67.40;;;;;;7281772;19;20180;-81
2023/06/26 09:36:33;;;;;;;6.22;1.27;;;33.90;64.90;;;;;;7303642;19;20180;-81
2023/06/26 09:39:10;;;;;;;7.13;1.70;;;33.90;62.40;;;;;;7282961;19;21048;-81
2023/06/26 09:41:40;;;;;;;8.00;1.70;;;33.80;65.00;;;;;;7260406;19;20655;-81
2023/06/26 09:44:07;;;;;;;4.55;1.33;;;34.20;62.80;;;;;;7281087;19;20192;-81
2023/06/26 09:46:33;;;;;;;6.90;1.67;;;33.80;60.90;;;;;;7287764;19;20181;-80
2023/06/26 09:49:12;;;;;;;5.22;1.40;;;33.80;61.70;;;;;;7305054;19;20189;-80
2023/06/26 09:51:41;;;;;;;5.35;1.40;;;33.30;61.10;;;;;;7180307;19;2004602;-81
2023/06/26 09:54:07;;;;;;;4.82;1.25;;;33.40;60.60;;;;;;7282608;19;20248;-81
2023/06/26 09:56:33;;;;;;;4.75;1.48;;;32.70;62.30;;;;;;7287632;19;20631;-81
2023/06/26 09:59:01;;;;;;;5.28;1.30;;;32.20;64.90;;;;;;7306424;19;20185;-81
2023/06/26 10:01:27;;;;;;;6.35;1.23;;;31.10;64.20;;;;;;7281845;19;20193;-81
2023/06/26 10:03:57;;;;;;;5.97;1.40;;;31.60;65.70;;;;;;7282758;19;20215;-81
2023/06/26 10:06:49;;;;;;;6.03;1.50;;;32.00;63.20;;;;;;7282779;19;20232;-81
2023/06/26 10:09:18;;;;;;;5.32;1.40;;;32.40;62.00;;;;;;7181256;19;2004568;-81
2023/06/26 10:12:22;;;;;;;7.32;1.60;;;32.50;62.80;;;;;;7284584;19;20193;-81
2023/06/26 10:14:49;;;;;;;6.43;1.08;;;32.40;63.20;;;;;;7180727;19;2005001;-80
2023/06/26 10:17:18;;;;;;;4.32;1.40;;;33.40;60.60;;;;;;7282868;19;20185;-81
2023/06/26 10:19:45;;;;;;;5.88;1.30;;;33.00;59.50;;;;;;7282373;19;20193;-81
2023/06/26 10:22:20;;;;;;;5.43;1.30;;;33.50;60.50;;;;;;7280996;19;20535;-81
2023/06/26 10:24:48;;;;;;;4.57;1.38;;;33.30;59.40;;;;;;7286965;19;20196;-81
2023/06/26 10:27:20;;;;;;;4.72;1.15;;;33.00;61.00;;;;;;7288378;19;20188;-80
2023/06/26 10:29:54;;;;;;;7.47;1.58;;;32.60;60.10;;;;;;7289731;19;20193;-81
2023/06/26 10:32:23;;;;;;;5.00;1.27;;;32.50;64.00;;;;;;7290990;19;20215;-81
2023/06/26 10:34:49;;;;;;;3.15;1.30;;;32.50;61.10;;;;;;7288134;19;20181;-80
2023/06/26 10:37:15;;;;;;;6.97;1.38;;;32.70;59.90;;;;;;7288372;19;20714;-80
2023/06/26 10:39:52;;;;;;;4.95;1.25;;;32.50;62.30;;;;;;7287922;19;20259;-81
2023/06/26 10:42:19;;;;;;;5.80;1.50;;;31.50;63.10;;;;;;7289652;19;20201;-81
2023/06/26 10:44:47;;;;;;;4.57;1.20;;;31.40;62.70;;;;;;7287916;19;20189;-81
2023/06/26 10:47:32;;;;;;;6.15;1.17;;;31.40;64.10;;;;;;7289228;19;20185;-81
2023/06/26 10:50:22;;;;;;;5.35;1.23;;;31.90;63.80;;;;;;7289686;19;20180;-81
2023/06/26 10:53:20;;;;;;;5.80;1.50;;;32.00;63.00;;;;;;7185626;19;2004815;-80
2023/06/26 10:56:05;;;;;;;4.78;1.40;;;31.10;63.00;;;;;;7186146;19;2004557;-80
2023/06/26 10:58:31;;;;;;;4.72;1.10;;;29.90;66.00;;;;;;7289530;19;20216;-80
2023/06/26 11:01:14;;;;;;;7.05;1.48;;;30.70;66.50;;;;;;7287905;19;20177;-80
2023/06/26 11:03:53;;;;;;;6.00;1.40;;;31.30;64.50;;;;;;7184391;19;2004767;-81
2023/06/26 11:06:20;;;;;;;5.00;1.45;;;31.50;63.10;;;;;;7287202;19;20603;-81
2023/06/26 11:08:48;;;;;;;6.90;1.27;;;31.00;65.00;;;;;;7287307;19;20201;-80
2023/06/26 11:11:14;;;;;;;6.70;1.50;;;32.30;65.30;;;;;;7287828;19;20193;-81
2023/06/26 11:13:41;;;;;;;6.57;1.30;;;33.40;64.20;;;;;;7288375;19;20216;-81
2023/06/26 11:16:07;;;;;;;5.78;1.23;;;35.00;59.30;;;;;;7287461;19;20512;-81
2023/06/26 11:18:33;;;;;;;3.30;1.02;;;35.30;59.50;;;;;;7301710;19;20298;-80
2023/06/26 11:21:09;;;;;;;7.80;1.20;;;33.20;59.40;;;;;;7308333;19;20199;-80
2023/06/26 11:23:36;;;;;;;4.60;1.20;;;32.10;60.60;;;;;;7267279;19;20197;-81
2023/06/26 11:26:18;;;;;;;4.03;1.20;;;30.60;61.70;;;;;;7312267;19;20672;-81
2023/06/26 11:29:02;;;;;;;4.95;1.17;;;31.00;63.70;;;;;;7186374;19;2004510;-81
2023/06/26 11:31:33;;;;;;;4.28;1.17;;;31.30;60.10;;;;;;7286725;19;20196;-81
2023/06/26 11:34:02;;;;;;;4.53;1.20;;;31.20;60.10;;;;;;7286973;19;20206;-81
2023/06/26 11:36:31;;;;;;;11.77;1.40;;;32.10;60.10;;;;;;7288253;19;20276;-81
2023/06/26 11:39:02;;;;;;;5.05;1.30;;;33.40;59.70;;;;;;7284599;19;20667;-81
2023/06/26 11:41:31;;;;;;;4.35;1.48;;;33.20;58.00;;;;;;7286328;19;20214;-81
2023/06/26 11:44:04;;;;;;;7.68;1.20;;;33.40;59.50;;;;;;7287577;19;20192;-81
2023/06/26 11:46:31;;;;;;;4.22;0.93;;;34.00;59.00;;;;;;7284224;19;20217;-80
2023/06/26 11:48:57;;;;;;;4.25;1.25;;;33.00;57.40;;;;;;7286885;19;20691;-82
2023/06/26 11:51:23;;;;;;;3.40;1.00;;;31.50;58.70;;;;;;7287109;19;20199;-81
2023/06/26 11:53:49;;;;;;;5.15;1.35;;;30.70;59.90;;;;;;7286680;19;20200;-81
2023/06/26 11:56:16;;;;;;;7.55;1.52;;;30.30;61.90;;;;;;7287288;19;20555;-81
2023/06/26 11:59:02;;;;;;;5.50;1.20;;;30.40;62.10;;;;;;7286751;19;20208;-81
2023/06/26 12:01:47;;;;;;;5.15;1.30;;;30.10;65.20;;;;;;7285875;19;20256;-81
2023/06/26 12:04:16;;;;;;;5.35;1.73;;;29.90;64.20;;;;;;7182300;19;2004571;-80
2023/06/26 12:06:48;;;;;;;5.78;1.23;;;29.70;65.80;;;;;;7286820;19;20189;-81
2023/06/26 12:09:14;;;;;;;4.57;1.08;;;30.00;65.70;;;;;;7284591;19;21003;-81
2023/06/26 12:11:44;;;;;;;5.32;1.30;;;29.60;65.80;;;;;;7287029;19;20185;-81
2023/06/26 12:14:10;;;;;;;7.20;1.52;;;29.40;62.80;;;;;;7285927;19;20503;-81
2023/06/26 12:16:38;;;;;;;3.45;1.10;;;29.30;63.20;;;;;;7286088;19;20211;-81
2023/06/26 12:19:06;;;;;;;5.00;1.20;;;29.10;62.60;;;;;;7285291;19;20191;-81
2023/06/26 12:21:38;;;;;;;6.00;1.30;;;29.50;63.00;;;;;;7307729;19;20268;-81
2023/06/26 12:24:09;;;;;;;5.50;1.38;;;29.10;64.90;;;;;;7269857;19;20204;-80
2023/06/26 12:26:38;;;;;;;6.35;1.02;;;29.20;62.60;;;;;;7286303;19;20213;-81
2023/06/26 12:29:08;;;;;;;8.32;1.52;;;28.60;66.40;;;;;;7288805;19;20549;-81
2023/06/26 12:31:34;;;;;;;6.25;1.20;;;28.50;67.00;;;;;;7291435;19;20189;-80
2023/06/26 12:34:00;;;;;;;8.20;1.55;;;28.30;67.20;;;;;;7306962;19;20221;-81
2023/06/26 12:36:26;;;;;;;4.35;1.27;;;28.40;68.40;;;;;;7284262;19;20208;-81
2023/06/26 12:38:55;;;;;;;9.45;1.48;;;28.40;66.50;;;;;;7285837;19;20189;-81
2023/06/26 12:41:24;;;;;;;4.03;1.30;;;28.30;67.20;;;;;;7283995;19;20192;-81
2023/06/26 12:43:55;;;;;;;11.25;1.60;;;28.50;66.90;;;;;;7285908;19;20204;-81
2023/06/26 12:46:34;;;;;;;10.88;1.40;;;28.20;64.40;;;;;;7283417;19;20222;-81